sensor_id;sensor_type;location;lat;lon;timestamp;pressure;altitude;pressure_sealevel;temperature;humidity
69535;BME280;56754;51.568;5.048;2023-03-01T00:01:14;103077.81;;;6.11;57.39
69535;BME280;56754;51.568;5.048;2023-03-01T00:03:40;103074.34;;;6.10;57.34
69535;BME280;56754;51.568;5.048;2023-03-01T00:06:05;103076.22;;;6.10;58.06
69535;BME280;56754;51.568;5.048;2023-03-01T00:08:31;103072.75;;;6.09;58.39
69535;BME280;56754;51.568;5.048;2023-03-01T00:11:33;103062.94;;;6.10;57.83
69535;BME280;56754;51.568;5.048;2023-03-01T00:13:54;103066.84;;;6.07;57.28
69535;BME280;56754;51.568;5.048;2023-03-01T00:16:23;103077.47;;;6.07;58.67
69535;BME280;56754;51.568;5.048;2023-03-01T00:18:50;103066.25;;;6.05;58.25
69535;BME280;56754;51.568;5.048;2023-03-01T00:21:15;103067.28;;;6.04;57.57
69535;BME280;56754;51.568;5.048;2023-03-01T00:23:40;103072.59;;;6.04;57.95
69535;BME280;56754;51.568;5.048;2023-03-01T00:26:08;103067.50;;;6.03;58.08
69535;BME280;56754;51.568;5.048;2023-03-01T00:28:34;103068.53;;;6.02;58.36
69535;BME280;56754;51.568;5.048;2023-03-01T00:31:04;103069.59;;;6.01;57.92
69535;BME280;56754;51.568;5.048;2023-03-01T00:33:29;103068.75;;;6.00;58.24
69535;BME280;56754;51.568;5.048;2023-03-01T00:35:57;103069.59;;;6.01;58.05
69535;BME280;56754;51.568;5.048;2023-03-01T00:38:22;103068.75;;;6.00;58.42
69535;BME280;56754;51.568;5.048;2023-03-01T00:40:47;103072.44;;;5.99;58.51
69535;BME280;56754;51.568;5.048;2023-03-01T00:43:13;103074.31;;;5.99;58.96
69535;BME280;56754;51.568;5.048;2023-03-01T00:45:38;103074.50;;;5.97;58.27
69535;BME280;56754;51.568;5.048;2023-03-01T00:48:03;103063.88;;;5.97;57.80
69535;BME280;56754;51.568;5.048;2023-03-01T00:50:29;103067.38;;;5.98;57.85
69535;BME280;56754;51.568;5.048;2023-03-01T00:52:55;103070.84;;;5.98;58.28
69535;BME280;56754;51.568;5.048;2023-03-01T00:55:20;103068.19;;;5.98;58.01
69535;BME280;56754;51.568;5.048;2023-03-01T00:57:46;103067.38;;;5.98;58.44
69535;BME280;56754;51.568;5.048;2023-03-01T01:00:11;103062.88;;;5.98;58.09
69535;BME280;56754;51.568;5.048;2023-03-01T01:02:37;103066.53;;;5.97;58.21
69535;BME280;56754;51.568;5.048;2023-03-01T01:05:03;103058.59;;;5.97;57.82
69535;BME280;56754;51.568;5.048;2023-03-01T01:07:28;103050.84;;;5.96;58.02
69535;BME280;56754;51.568;5.048;2023-03-01T01:09:54;103044.94;;;5.93;57.88
69535;BME280;56754;51.568;5.048;2023-03-01T01:12:19;103045.97;;;5.92;58.12
69535;BME280;56754;51.568;5.048;2023-03-01T01:14:45;103042.50;;;5.92;58.20
69535;BME280;56754;51.568;5.048;2023-03-01T01:17:11;103040.06;;;5.90;58.30
69535;BME280;56754;51.568;5.048;2023-03-01T01:19:36;103042.72;;;5.90;58.31
69535;BME280;56754;51.568;5.048;2023-03-01T01:22:02;103034.16;;;5.88;58.11
69535;BME280;56754;51.568;5.048;2023-03-01T01:24:27;103033.34;;;5.88;58.33
69535;BME280;56754;51.568;5.048;2023-03-01T01:26:52;103029.88;;;5.87;57.99
69535;BME280;56754;51.568;5.048;2023-03-01T01:29:18;103026.44;;;5.87;58.24
69535;BME280;56754;51.568;5.048;2023-03-01T01:31:43;103022.97;;;5.86;57.51
69535;BME280;56754;51.568;5.048;2023-03-01T01:34:14;103019.50;;;5.86;58.56
69535;BME280;56754;51.568;5.048;2023-03-01T01:36:40;103016.25;;;5.84;58.28
69535;BME280;56754;51.568;5.048;2023-03-01T01:39:06;103011.16;;;5.82;58.39
69535;BME280;56754;51.568;5.048;2023-03-01T01:41:31;103016.47;;;5.82;58.42
69535;BME280;56754;51.568;5.048;2023-03-01T01:44:29;103005.06;;;5.82;58.31
69535;BME280;56754;51.568;5.048;2023-03-01T01:47:06;103008.75;;;5.81;58.36
69535;BME280;56754;51.568;5.048;2023-03-01T01:49:39;103001.81;;;5.80;57.98
69535;BME280;56754;51.568;5.048;2023-03-01T01:52:22;102992.22;;;5.79;58.12
69535;BME280;56754;51.568;5.048;2023-03-01T01:54:53;102987.97;;;5.78;58.28
69535;BME280;56754;51.568;5.048;2023-03-01T01:57:25;102991.44;;;5.78;57.99
69535;BME280;56754;51.568;5.048;2023-03-01T01:59:56;102993.28;;;5.78;58.09
69535;BME280;56754;51.568;5.048;2023-03-01T02:02:22;102990.03;;;5.76;58.73
69535;BME280;56754;51.568;5.048;2023-03-01T02:04:49;102996.38;;;5.75;58.54
69535;BME280;56754;51.568;5.048;2023-03-01T02:07:22;102982.31;;;5.74;58.19
69535;BME280;56754;51.568;5.048;2023-03-01T02:09:50;102984.34;;;5.72;58.57
69535;BME280;56754;51.568;5.048;2023-03-01T02:12:20;102978.25;;;5.72;57.88
69535;BME280;56754;51.568;5.048;2023-03-01T02:14:47;102973.16;;;5.70;58.16
69535;BME280;56754;51.568;5.048;2023-03-01T02:17:15;102973.38;;;5.68;58.56
69535;BME280;56754;51.568;5.048;2023-03-01T02:22:29;102970.38;;;5.65;58.97
69535;BME280;56754;51.568;5.048;2023-03-01T02:27:23;102964.84;;;5.66;58.27
69535;BME280;56754;51.568;5.048;2023-03-01T02:29:52;102956.28;;;5.64;58.91
69535;BME280;56754;51.568;5.048;2023-03-01T02:32:18;102963.66;;;5.62;58.83
69535;BME280;56754;51.568;5.048;2023-03-01T02:34:44;102964.69;;;5.61;58.75
69535;BME280;56754;51.568;5.048;2023-03-01T02:37:13;102961.22;;;5.61;58.82
69535;BME280;56754;51.568;5.048;2023-03-01T02:39:42;102972.63;;;5.61;58.88
69535;BME280;56754;51.568;5.048;2023-03-01T02:42:18;102971.84;;;5.61;58.64
69535;BME280;56754;51.568;5.048;2023-03-01T02:44:46;102968.38;;;5.60;58.14
69535;BME280;56754;51.568;5.048;2023-03-01T02:47:11;102979.00;;;5.60;58.93
69535;BME280;56754;51.568;5.048;2023-03-01T02:49:37;102975.75;;;5.58;58.83
69535;BME280;56754;51.568;5.048;2023-03-01T02:55:01;102977.00;;;5.56;58.88
69535;BME280;56754;51.568;5.048;2023-03-01T02:57:30;102972.72;;;5.55;58.99
69535;BME280;56754;51.568;5.048;2023-03-01T02:59:57;102978.84;;;5.55;58.89
69535;BME280;56754;51.568;5.048;2023-03-01T03:02:26;102974.56;;;5.54;58.03
69535;BME280;56754;51.568;5.048;2023-03-01T03:04:53;102975.63;;;5.53;58.61
69535;BME280;56754;51.568;5.048;2023-03-01T03:07:18;102966.81;;;5.53;58.55
69535;BME280;56754;51.568;5.048;2023-03-01T03:09:43;102973.19;;;5.52;58.98
69535;BME280;56754;51.568;5.048;2023-03-01T03:12:09;102973.97;;;5.52;59.08
69535;BME280;56754;51.568;5.048;2023-03-01T03:14:34;102971.56;;;5.51;58.67
69535;BME280;56754;51.568;5.048;2023-03-01T03:16:59;102960.94;;;5.51;59.22
69535;BME280;56754;51.568;5.048;2023-03-01T03:19:24;102956.44;;;5.51;58.84
69535;BME280;56754;51.568;5.048;2023-03-01T03:21:50;102956.66;;;5.50;58.87
69535;BME280;56754;51.568;5.048;2023-03-01T03:24:15;102958.50;;;5.49;58.67
69535;BME280;56754;51.568;5.048;2023-03-01T03:26:40;102961.16;;;5.49;59.21
69535;BME280;56754;51.568;5.048;2023-03-01T03:29:06;102953.44;;;5.47;58.49
69535;BME280;56754;51.568;5.048;2023-03-01T03:31:31;102946.28;;;5.48;58.89
69535;BME280;56754;51.568;5.048;2023-03-01T03:33:56;102956.91;;;5.48;58.94
69535;BME280;56754;51.568;5.048;2023-03-01T03:36:23;102959.56;;;5.48;59.21
69535;BME280;56754;51.568;5.048;2023-03-01T03:38:49;102954.44;;;5.46;58.87
69535;BME280;56754;51.568;5.048;2023-03-01T03:41:15;102956.09;;;5.47;58.83
69535;BME280;56754;51.568;5.048;2023-03-01T03:43:41;102946.72;;;5.45;58.98
69535;BME280;56754;51.568;5.048;2023-03-01T03:46:07;102942.22;;;5.45;59.09
69535;BME280;56754;51.568;5.048;2023-03-01T03:48:37;102946.72;;;5.45;59.16
69535;BME280;56754;51.568;5.048;2023-03-01T03:51:03;102938.97;;;5.43;59.21
69535;BME280;56754;51.568;5.048;2023-03-01T03:53:29;102939.22;;;5.42;58.72
69535;BME280;56754;51.568;5.048;2023-03-01T03:55:54;102941.88;;;5.42;59.35
69535;BME280;56754;51.568;5.048;2023-03-01T03:58:21;102947.97;;;5.42;58.97
69535;BME280;56754;51.568;5.048;2023-03-01T04:00:49;102947.19;;;5.42;59.30
69535;BME280;56754;51.568;5.048;2023-03-01T04:03:16;102939.22;;;5.42;59.30
69535;BME280;56754;51.568;5.048;2023-03-01T04:05:42;102947.97;;;5.42;58.80
69535;BME280;56754;51.568;5.048;2023-03-01T04:08:08;102947.19;;;5.42;58.85
69535;BME280;56754;51.568;5.048;2023-03-01T04:10:44;102949.03;;;5.41;58.69
69535;BME280;56754;51.568;5.048;2023-03-01T04:13:13;102939.22;;;5.42;58.62
69535;BME280;56754;51.568;5.048;2023-03-01T04:15:39;102939.44;;;5.40;58.60
69535;BME280;56754;51.568;5.048;2023-03-01T04:18:05;102929.63;;;5.41;58.67
69535;BME280;56754;51.568;5.048;2023-03-01T04:20:33;102933.31;;;5.40;58.60
69535;BME280;56754;51.568;5.048;2023-03-01T04:23:08;102940.47;;;5.39;58.63
69535;BME280;56754;51.568;5.048;2023-03-01T04:25:34;102925.59;;;5.38;58.27
69535;BME280;56754;51.568;5.048;2023-03-01T04:27:59;102930.06;;;5.38;58.82
69535;BME280;56754;51.568;5.048;2023-03-01T04:30:24;102938.88;;;5.38;58.65
69535;BME280;56754;51.568;5.048;2023-03-01T04:32:50;102933.75;;;5.37;58.56
69535;BME280;56754;51.568;5.048;2023-03-01T04:35:15;102939.06;;;5.37;58.89
69535;BME280;56754;51.568;5.048;2023-03-01T04:37:40;102935.63;;;5.36;58.63
69535;BME280;56754;51.568;5.048;2023-03-01T04:40:06;102931.31;;;5.35;58.53
69535;BME280;56754;51.568;5.048;2023-03-01T04:42:32;102929.72;;;5.34;59.07
69535;BME280;56754;51.568;5.048;2023-03-01T04:44:57;102935.81;;;5.35;58.54
69535;BME280;56754;51.568;5.048;2023-03-01T04:47:22;102933.41;;;5.33;58.74
69535;BME280;56754;51.568;5.048;2023-03-01T04:49:47;102925.44;;;5.33;58.72
69535;BME280;56754;51.568;5.048;2023-03-01T04:52:13;102924.84;;;5.31;58.07
69535;BME280;56754;51.568;5.048;2023-03-01T04:54:38;102925.66;;;5.32;58.77
69535;BME280;56754;51.568;5.048;2023-03-01T04:57:03;102917.13;;;5.30;59.20
69535;BME280;56754;51.568;5.048;2023-03-01T04:59:29;102910.19;;;5.29;58.64
69535;BME280;56754;51.568;5.048;2023-03-01T05:01:55;102905.13;;;5.27;58.44
69535;BME280;56754;51.568;5.048;2023-03-01T05:04:22;102900.63;;;5.28;58.45
69535;BME280;56754;51.568;5.048;2023-03-01T05:06:48;102895.31;;;5.28;58.38
69535;BME280;56754;51.568;5.048;2023-03-01T05:09:13;102890.22;;;5.26;58.71
69535;BME280;56754;51.568;5.048;2023-03-01T05:11:38;102895.78;;;5.24;58.38
69535;BME280;56754;51.568;5.048;2023-03-01T05:14:06;102896.81;;;5.23;59.00
69535;BME280;56754;51.568;5.048;2023-03-01T05:16:32;102882.97;;;5.21;58.83
69535;BME280;56754;51.568;5.048;2023-03-01T05:18:58;102884.81;;;5.21;59.00
69535;BME280;56754;51.568;5.048;2023-03-01T05:21:24;102889.28;;;5.20;58.59
69535;BME280;56754;51.568;5.048;2023-03-01T05:23:50;102884.22;;;5.19;58.78
69535;BME280;56754;51.568;5.048;2023-03-01T05:26:18;102891.13;;;5.20;58.88
69535;BME280;56754;51.568;5.048;2023-03-01T05:28:44;102878.09;;;5.18;59.35
69535;BME280;56754;51.568;5.048;2023-03-01T05:31:10;102884.41;;;5.17;58.92
69535;BME280;56754;51.568;5.048;2023-03-01T05:33:37;102876.47;;;5.17;58.82
69535;BME280;56754;51.568;5.048;2023-03-01T05:36:04;102872.00;;;5.18;59.47
69535;BME280;56754;51.568;5.048;2023-03-01T05:38:29;102872.22;;;5.16;59.10
69535;BME280;56754;51.568;5.048;2023-03-01T05:40:55;102863.66;;;5.14;59.44
69535;BME280;56754;51.568;5.048;2023-03-01T05:43:20;102861.00;;;5.14;58.69
69535;BME280;56754;51.568;5.048;2023-03-01T05:45:45;102852.50;;;5.12;59.20
69535;BME280;56754;51.568;5.048;2023-03-01T05:48:11;102854.34;;;5.12;58.47
69535;BME280;56754;51.568;5.048;2023-03-01T05:50:40;102854.34;;;5.12;58.94
69535;BME280;56754;51.568;5.048;2023-03-01T05:53:15;102853.50;;;5.11;59.29
69535;BME280;56754;51.568;5.048;2023-03-01T05:55:41;102854.53;;;5.10;59.08
69535;BME280;56754;51.568;5.048;2023-03-01T05:58:10;102847.63;;;5.09;59.08
69535;BME280;56754;51.568;5.048;2023-03-01T06:00:35;102852.09;;;5.09;59.09
69535;BME280;56754;51.568;5.048;2023-03-01T06:03:01;102856.59;;;5.08;58.86
69535;BME280;56754;51.568;5.048;2023-03-01T06:05:27;102850.50;;;5.08;59.17
69535;BME280;56754;51.568;5.048;2023-03-01T06:07:53;102849.88;;;5.06;59.43
69535;BME280;56754;51.568;5.048;2023-03-01T06:10:20;102860.72;;;5.04;58.86
69535;BME280;56754;51.568;5.048;2023-03-01T06:12:46;102857.03;;;5.05;59.09
69535;BME280;56754;51.568;5.048;2023-03-01T06:15:13;102856.25;;;5.05;59.09
69535;BME280;56754;51.568;5.048;2023-03-01T06:17:40;102857.47;;;5.02;58.87
69535;BME280;56754;51.568;5.048;2023-03-01T06:20:09;102861.97;;;5.01;59.00
69535;BME280;56754;51.568;5.048;2023-03-01T06:22:34;102860.13;;;5.02;58.83
69535;BME280;56754;51.568;5.048;2023-03-01T06:25:00;102860.38;;;5.00;59.12
69535;BME280;56754;51.568;5.048;2023-03-01T06:27:25;102864.88;;;5.00;58.66
69535;BME280;56754;51.568;5.048;2023-03-01T06:29:50;102857.13;;;4.98;58.86
69535;BME280;56754;51.568;5.048;2023-03-01T06:32:16;102857.94;;;4.99;59.00
69535;BME280;56754;51.568;5.048;2023-03-01T06:34:41;102855.50;;;4.97;58.88
69535;BME280;56754;51.568;5.048;2023-03-01T06:37:07;102860.81;;;4.97;58.93
69535;BME280;56754;51.568;5.048;2023-03-01T06:39:33;102860.00;;;4.97;58.86
69535;BME280;56754;51.568;5.048;2023-03-01T06:41:59;102866.13;;;4.97;59.01
69535;BME280;56754;51.568;5.048;2023-03-01T06:44:25;102871.41;;;4.97;59.43
69535;BME280;56754;51.568;5.048;2023-03-01T06:46:50;102870.63;;;4.97;58.83
69535;BME280;56754;51.568;5.048;2023-03-01T06:49:16;102869.78;;;4.96;58.79
69535;BME280;56754;51.568;5.048;2023-03-01T06:51:41;102867.97;;;4.97;58.86
69535;BME280;56754;51.568;5.048;2023-03-01T06:54:07;102872.66;;;4.95;58.44
69535;BME280;56754;51.568;5.048;2023-03-01T06:56:32;102872.44;;;4.96;58.82
69535;BME280;56754;51.568;5.048;2023-03-01T06:58:58;102874.28;;;4.96;58.82
69535;BME280;56754;51.568;5.048;2023-03-01T07:01:23;102867.13;;;4.96;58.91
69535;BME280;56754;51.568;5.048;2023-03-01T07:03:48;102873.25;;;4.97;58.42
69535;BME280;56754;51.568;5.048;2023-03-01T07:06:14;102870.63;;;4.97;58.63
69535;BME280;56754;51.568;5.048;2023-03-01T07:08:39;102874.06;;;4.97;58.65
69535;BME280;56754;51.568;5.048;2023-03-01T07:11:04;102879.13;;;4.99;59.18
69535;BME280;56754;51.568;5.048;2023-03-01T07:13:29;102868.31;;;5.00;58.84
69535;BME280;56754;51.568;5.048;2023-03-01T07:15:55;102863.03;;;5.00;58.58
69535;BME280;56754;51.568;5.048;2023-03-01T07:18:20;102868.09;;;5.02;58.96
69535;BME280;56754;51.568;5.048;2023-03-01T07:20:46;102862.78;;;5.02;58.57
69535;BME280;56754;51.568;5.048;2023-03-01T07:23:11;102858.28;;;5.02;58.32
69535;BME280;56754;51.568;5.048;2023-03-01T07:25:36;102864.19;;;5.05;58.85
69535;BME280;56754;51.568;5.048;2023-03-01T07:28:01;102858.69;;;5.06;58.21
69535;BME280;56754;51.568;5.048;2023-03-01T07:30:27;102862.94;;;5.07;58.61
69535;BME280;56754;51.568;5.048;2023-03-01T07:32:52;102866.19;;;5.09;58.58
69535;BME280;56754;51.568;5.048;2023-03-01T07:35:18;102867.59;;;5.12;58.20
69535;BME280;56754;51.568;5.048;2023-03-01T07:37:43;102860.44;;;5.12;58.52
69535;BME280;56754;51.568;5.048;2023-03-01T07:40:09;102869.56;;;5.16;58.60
69535;BME280;56754;51.568;5.048;2023-03-01T07:42:35;102875.66;;;5.17;58.35
69535;BME280;56754;51.568;5.048;2023-03-01T07:45:00;102874.22;;;5.21;58.24
69535;BME280;56754;51.568;5.048;2023-03-01T07:47:25;102870.31;;;5.23;58.62
69535;BME280;56754;51.568;5.048;2023-03-01T07:49:50;102866.38;;;5.26;58.73
69535;BME280;56754;51.568;5.048;2023-03-01T07:52:16;102869.41;;;5.30;58.15
69535;BME280;56754;51.568;5.048;2023-03-01T07:54:43;102876.31;;;5.31;57.92
69535;BME280;56754;51.568;5.048;2023-03-01T07:57:08;102875.28;;;5.32;58.24
69535;BME280;56754;51.568;5.048;2023-03-01T07:59:33;102878.53;;;5.34;57.69
69535;BME280;56754;51.568;5.048;2023-03-01T08:01:59;102881.78;;;5.36;57.88
69535;BME280;56754;51.568;5.048;2023-03-01T08:04:24;102877.03;;;5.38;57.40
69535;BME280;56754;51.568;5.048;2023-03-01T08:06:49;102882.94;;;5.40;57.75
69535;BME280;56754;51.568;5.048;2023-03-01T08:09:15;102874.53;;;5.43;57.51
69535;BME280;56754;51.568;5.048;2023-03-01T08:11:40;102876.97;;;5.44;57.99
69535;BME280;56754;51.568;5.048;2023-03-01T08:14:06;102882.63;;;5.48;56.97
69535;BME280;56754;51.568;5.048;2023-03-01T08:16:31;102881.38;;;5.51;57.33
69535;BME280;56754;51.568;5.048;2023-03-01T08:18:56;102880.13;;;5.53;57.83
69535;BME280;56754;51.568;5.048;2023-03-01T08:21:22;102881.72;;;5.54;57.58
69535;BME280;56754;51.568;5.048;2023-03-01T08:23:47;102873.91;;;5.59;57.46
69535;BME280;56754;51.568;5.048;2023-03-01T08:26:19;102868.38;;;5.61;57.47
69535;BME280;56754;51.568;5.048;2023-03-01T08:28:46;102870.38;;;5.65;57.46
69535;BME280;56754;51.568;5.048;2023-03-01T08:31:30;102867.25;;;5.68;57.26
69535;BME280;56754;51.568;5.048;2023-03-01T08:33:59;102871.88;;;5.73;57.13
69535;BME280;56754;51.568;5.048;2023-03-01T08:36:27;102871.22;;;5.78;57.15
69535;BME280;56754;51.568;5.048;2023-03-01T08:38:53;102865.19;;;5.82;57.10
69535;BME280;56754;51.568;5.048;2023-03-01T08:41:19;102873.53;;;5.86;56.58
69535;BME280;56754;51.568;5.048;2023-03-01T08:43:44;102873.66;;;5.91;56.68
69535;BME280;56754;51.568;5.048;2023-03-01T08:46:11;102874.88;;;5.95;56.27
69535;BME280;56754;51.568;5.048;2023-03-01T08:48:36;102869.91;;;5.99;56.10
69535;BME280;56754;51.568;5.048;2023-03-01T08:51:18;102869.19;;;6.03;55.84
69535;BME280;56754;51.568;5.048;2023-03-01T08:53:44;102861.03;;;6.05;55.59
69535;BME280;56754;51.568;5.048;2023-03-01T08:56:11;102862.19;;;6.09;55.74
69535;BME280;56754;51.568;5.048;2023-03-01T08:58:36;102861.97;;;6.10;55.46
69535;BME280;56754;51.568;5.048;2023-03-01T09:01:13;102852.28;;;6.16;55.57
69535;BME280;56754;51.568;5.048;2023-03-01T09:03:39;102852.03;;;6.18;55.74
69535;BME280;56754;51.568;5.048;2023-03-01T09:06:06;102843.59;;;6.21;55.75
69535;BME280;56754;51.568;5.048;2023-03-01T09:08:35;102839.69;;;6.23;55.47
69535;BME280;56754;51.568;5.048;2023-03-01T09:11:05;102833.09;;;6.26;55.82
69535;BME280;56754;51.568;5.048;2023-03-01T09:13:31;102826.28;;;6.30;55.55
69535;BME280;56754;51.568;5.048;2023-03-01T09:15:57;102825.81;;;6.33;55.42
69535;BME280;56754;51.568;5.048;2023-03-01T09:18:23;102818.22;;;6.36;55.71
69535;BME280;56754;51.568;5.048;2023-03-01T09:20:48;102824.94;;;6.39;55.26
69535;BME280;56754;51.568;5.048;2023-03-01T09:23:13;102818.31;;;6.42;55.14
69535;BME280;56754;51.568;5.048;2023-03-01T09:25:39;102816.03;;;6.45;55.20
69535;BME280;56754;51.568;5.048;2023-03-01T09:28:04;102805.75;;;6.49;54.98
69535;BME280;56754;51.568;5.048;2023-03-01T09:30:29;102824.66;;;6.52;54.99
69535;BME280;56754;51.568;5.048;2023-03-01T09:32:56;102811.97;;;6.54;54.89
69535;BME280;56754;51.568;5.048;2023-03-01T09:35:21;102809.41;;;6.59;54.92
69535;BME280;56754;51.568;5.048;2023-03-01T09:37:46;102795.91;;;6.61;54.59
69535;BME280;56754;51.568;5.048;2023-03-01T09:40:15;102801.53;;;6.65;54.21
69535;BME280;56754;51.568;5.048;2023-03-01T09:42:48;102804.53;;;6.68;54.30
69535;BME280;56754;51.568;5.048;2023-03-01T09:45:25;102797.72;;;6.72;54.37
69535;BME280;56754;51.568;5.048;2023-03-01T09:47:52;102800.94;;;6.74;54.41
69535;BME280;56754;51.568;5.048;2023-03-01T09:50:20;102797.59;;;6.79;54.50
69535;BME280;56754;51.568;5.048;2023-03-01T09:52:50;102802.44;;;6.82;54.73
69535;BME280;56754;51.568;5.048;2023-03-01T09:55:50;102784.16;;;6.86;54.83
69535;BME280;56754;51.568;5.048;2023-03-01T10:04:41;102781.25;;;6.99;53.95
69535;BME280;56754;51.568;5.048;2023-03-01T10:09:38;102781.56;;;7.02;54.32
69535;BME280;56754;51.568;5.048;2023-03-01T10:12:09;102776.84;;;7.04;54.17
69535;BME280;56754;51.568;5.048;2023-03-01T10:14:39;102779.81;;;7.08;54.18
69535;BME280;56754;51.568;5.048;2023-03-01T10:17:17;102785.72;;;7.10;54.28
69535;BME280;56754;51.568;5.048;2023-03-01T10:19:46;102780.94;;;7.12;54.02
69535;BME280;56754;51.568;5.048;2023-03-01T10:22:23;102780.47;;;7.15;53.94
69535;BME280;56754;51.568;5.048;2023-03-01T10:24:51;102772.28;;;7.17;54.42
69535;BME280;56754;51.568;5.048;2023-03-01T10:27:34;102770.19;;;7.19;54.50
69535;BME280;56754;51.568;5.048;2023-03-01T10:32:53;102760.69;;;7.23;53.52
69535;BME280;56754;51.568;5.048;2023-03-01T10:35:21;102760.69;;;7.23;53.48
69535;BME280;56754;51.568;5.048;2023-03-01T10:38:06;102764.94;;;7.24;53.89
69535;BME280;56754;51.568;5.048;2023-03-01T10:40:32;102746.31;;;7.24;53.81
69535;BME280;56754;51.568;5.048;2023-03-01T10:43:00;102742.63;;;7.25;53.56
69535;BME280;56754;51.568;5.048;2023-03-01T10:48:23;102741.59;;;7.26;53.93
69535;BME280;56754;51.568;5.048;2023-03-01T10:50:50;102736.84;;;7.28;53.46
69535;BME280;56754;51.568;5.048;2023-03-01T10:53:44;102740.31;;;7.28;53.53
69535;BME280;56754;51.568;5.048;2023-03-01T10:56:14;102725.16;;;7.29;53.88
69535;BME280;56754;51.568;5.048;2023-03-01T10:58:56;102723.06;;;7.31;53.66
69535;BME280;56754;51.568;5.048;2023-03-01T11:06:30;102733.75;;;7.36;53.61
69535;BME280;56754;51.568;5.048;2023-03-01T11:08:55;102725.56;;;7.38;54.68
69535;BME280;56754;51.568;5.048;2023-03-01T11:16:36;102721.34;;;7.42;54.18
69535;BME280;56754;51.568;5.048;2023-03-01T11:22:20;102716.84;;;7.42;54.35
69535;BME280;56754;51.568;5.048;2023-03-01T11:24:27;102722.16;;;7.42;53.98
69535;BME280;56754;51.568;5.048;2023-03-01T11:26:55;102714.75;;;7.44;54.73
69535;BME280;56754;51.568;5.048;2023-03-01T11:32:13;102704.91;;;7.45;55.26
69535;BME280;56754;51.568;5.048;2023-03-01T11:34:49;102703.06;;;7.45;54.98
69535;BME280;56754;51.568;5.048;2023-03-01T11:37:39;102708.41;;;7.45;54.48
69535;BME280;56754;51.568;5.048;2023-03-01T11:40:35;102707.34;;;7.46;54.67
69535;BME280;56754;51.568;5.048;2023-03-01T11:54:24;102704.69;;;7.46;54.52
69535;BME280;56754;51.568;5.048;2023-03-01T12:00:10;102692.75;;;7.49;55.09
69535;BME280;56754;51.568;5.048;2023-03-01T12:10:47;102686.16;;;7.51;54.83
69535;BME280;56754;51.568;5.048;2023-03-01T12:16:24;102676.03;;;7.53;54.69
69535;BME280;56754;51.568;5.048;2023-03-01T12:22:03;102670.50;;;7.55;54.83
69535;BME280;56754;51.568;5.048;2023-03-01T12:27:49;102662.81;;;7.59;55.38
69535;BME280;56754;51.568;5.048;2023-03-01T12:30:39;102660.47;;;7.62;55.10
69535;BME280;56754;51.568;5.048;2023-03-01T12:36:32;102664.09;;;7.73;54.85
69535;BME280;56754;51.568;5.048;2023-03-01T12:39:29;102644.72;;;7.78;55.01
69535;BME280;56754;51.568;5.048;2023-03-01T12:44:57;102648.09;;;7.90;54.20
69535;BME280;56754;51.568;5.048;2023-03-01T12:47:46;102647.13;;;7.96;53.86
69535;BME280;56754;51.568;5.048;2023-03-01T12:50:25;102644.25;;;8.03;54.31
69535;BME280;56754;51.568;5.048;2023-03-01T12:52:57;102631.81;;;8.08;53.85
69535;BME280;56754;51.568;5.048;2023-03-01T12:55:32;102632.69;;;8.14;54.36
69535;BME280;56754;51.568;5.048;2023-03-01T12:58:07;102622.91;;;8.19;53.65
69535;BME280;56754;51.568;5.048;2023-03-01T13:00:45;102622.16;;;8.24;54.02
69535;BME280;56754;51.568;5.048;2023-03-01T13:06:12;102609.47;;;8.36;53.81
69535;BME280;56754;51.568;5.048;2023-03-01T13:08:52;102601.34;;;8.43;53.64
69535;BME280;56754;51.568;5.048;2023-03-01T13:11:21;102587.25;;;8.48;54.06
69535;BME280;56754;51.568;5.048;2023-03-01T13:13:47;102584.66;;;8.53;53.56
69535;BME280;56754;51.568;5.048;2023-03-01T13:19:15;102578.38;;;8.64;53.90
69535;BME280;56754;51.568;5.048;2023-03-01T13:21:42;102586.38;;;8.69;53.64
69535;BME280;56754;51.568;5.048;2023-03-01T13:24:37;102580.31;;;8.74;53.52
69535;BME280;56754;51.568;5.048;2023-03-01T13:32:35;102577.75;;;8.89;53.13
69535;BME280;56754;51.568;5.048;2023-03-01T13:37:46;102567.44;;;8.98;53.59
69535;BME280;56754;51.568;5.048;2023-03-01T13:42:45;102570.66;;;9.05;53.64
69535;BME280;56754;51.568;5.048;2023-03-01T13:45:19;102559.25;;;9.09;53.52
69535;BME280;56754;51.568;5.048;2023-03-01T13:47:46;102556.06;;;9.13;53.34
69535;BME280;56754;51.568;5.048;2023-03-01T13:50:18;102543.56;;;9.18;54.22
69535;BME280;56754;51.568;5.048;2023-03-01T13:52:48;102539.59;;;9.21;54.17
69535;BME280;56754;51.568;5.048;2023-03-01T13:55:18;102542.28;;;9.26;53.81
69535;BME280;56754;51.568;5.048;2023-03-01T13:57:50;102540.94;;;9.28;53.45
69535;BME280;56754;51.568;5.048;2023-03-01T14:01:00;102532.97;;;9.33;53.25
69535;BME280;56754;51.568;5.048;2023-03-01T14:03:28;102528.75;;;9.38;53.39
69535;BME280;56754;51.568;5.048;2023-03-01T14:05:59;102527.16;;;9.42;52.42
69535;BME280;56754;51.568;5.048;2023-03-01T14:08:27;102530.09;;;9.45;52.83
69535;BME280;56754;51.568;5.048;2023-03-01T14:16:01;102521.38;;;9.60;52.55
69535;BME280;56754;51.568;5.048;2023-03-01T14:18:38;102512.59;;;9.65;52.74
69535;BME280;56754;51.568;5.048;2023-03-01T14:21:08;102507.53;;;9.68;53.08
69535;BME280;56754;51.568;5.048;2023-03-01T14:23:33;102509.16;;;9.74;53.10
69535;BME280;56754;51.568;5.048;2023-03-01T14:25:58;102502.75;;;9.80;53.12
69535;BME280;56754;51.568;5.048;2023-03-01T14:28:27;102504.66;;;9.85;52.93
69535;BME280;56754;51.568;5.048;2023-03-01T14:30:55;102502.75;;;9.91;52.59
69535;BME280;56754;51.568;5.048;2023-03-01T14:33:33;102494.25;;;9.94;52.67
69535;BME280;56754;51.568;5.048;2023-03-01T14:36:02;102485.44;;;9.98;52.32
69535;BME280;56754;51.568;5.048;2023-03-01T14:38:34;102481.97;;;10.03;53.98
69535;BME280;56754;51.568;5.048;2023-03-01T14:43:33;102473.19;;;10.13;52.23
69535;BME280;56754;51.568;5.048;2023-03-01T14:45:59;102473.44;;;10.16;52.30
69535;BME280;56754;51.568;5.048;2023-03-01T14:48:25;102461.16;;;10.20;52.49